createdAt,value
2023-01-29T00:00:39.795Z,100599.84
2023-01-29T00:03:07.747Z,100598.65
2023-01-29T00:05:35.801Z,100597.96
2023-01-29T00:08:04.059Z,100604.88
2023-01-29T00:10:32.797Z,100612.16
2023-01-29T00:13:01.591Z,100610.23
2023-01-29T00:15:29.592Z,100607.13
2023-01-29T00:17:57.536Z,100611.30
2023-01-29T00:20:25.356Z,100614.80
2023-01-29T00:22:53.885Z,100615.84
2023-01-29T00:25:21.770Z,100616.55
2023-01-29T00:27:50.251Z,100613.48
2023-01-29T00:30:20.076Z,100611.80
2023-01-29T00:32:48.321Z,100612.77
2023-01-29T00:35:16.191Z,100611.44
2023-01-29T00:37:44.127Z,100615.70
2023-01-29T00:40:12.524Z,100617.74
2023-01-29T00:42:59.598Z,100621.84
2023-01-29T00:45:27.729Z,100622.98
2023-01-29T00:47:55.721Z,100619.81
2023-01-29T00:50:23.874Z,100623.05
2023-01-29T00:52:52.981Z,100621.97
2023-01-29T00:55:21.567Z,100619.84
2023-01-29T00:57:50.121Z,100614.76
2023-01-29T01:00:19.306Z,100621.48
2023-01-29T01:03:05.953Z,100618.35
2023-01-29T01:05:38.118Z,100618.70
2023-01-29T01:08:26.039Z,100622.69
2023-01-29T01:11:05.129Z,100618.92
2023-01-29T01:13:33.895Z,100620.87
2023-01-29T01:16:01.970Z,100622.43
2023-01-29T01:18:30.584Z,100626.13
2023-01-29T01:20:58.475Z,100625.41
2023-01-29T01:23:26.363Z,100622.80
2023-01-29T01:25:54.285Z,100624.34
2023-01-29T01:28:22.479Z,100623.65
2023-01-29T01:30:50.509Z,100618.83
2023-01-29T01:33:18.521Z,100623.57
2023-01-29T01:35:46.490Z,100620.13
2023-01-29T01:38:17.761Z,100622.41
2023-01-29T01:40:46.716Z,100620.03
2023-01-29T01:43:14.769Z,100622.83
2023-01-29T01:45:46.787Z,100621.83
2023-01-29T01:48:18.498Z,100623.77
2023-01-29T01:50:50.648Z,100627.25
2023-01-29T01:53:34.999Z,100629.20
2023-01-29T01:56:06.362Z,100621.79
2023-01-29T01:58:40.476Z,100626.45
2023-01-29T02:01:08.644Z,100630.62
2023-01-29T02:04:08.806Z,100631.14
2023-01-29T02:06:55.526Z,100631.50
2023-01-29T02:09:38.934Z,100632.77
2023-01-29T02:12:14.165Z,100634.89
2023-01-29T02:14:42.161Z,100634.88
2023-01-29T02:17:12.571Z,100636.42
2023-01-29T02:20:19.575Z,100639.31
2023-01-29T02:23:02.718Z,100637.32
2023-01-29T02:25:34.759Z,100639.29
2023-01-29T02:28:07.404Z,100633.54
2023-01-29T02:30:49.664Z,100630.71
2023-01-29T02:33:26.854Z,100628.19
2023-01-29T02:36:36.556Z,100627.91
2023-01-29T02:39:14.865Z,100632.11
2023-01-29T02:41:56.167Z,100634.12
2023-01-29T02:44:44.364Z,100634.52
2023-01-29T02:47:36.692Z,100634.53
2023-01-29T02:50:20.393Z,100636.50
2023-01-29T02:52:51.609Z,100642.46
2023-01-29T02:55:44.900Z,100640.63
2023-01-29T02:58:35.774Z,100642.20
2023-01-29T03:01:08.005Z,100642.23
2023-01-29T03:03:48.176Z,100636.89
2023-01-29T03:06:22.473Z,100636.61
2023-01-29T03:08:54.412Z,100633.55
2023-01-29T03:11:22.343Z,100637.23
2023-01-29T03:14:16.827Z,100635.23
2023-01-29T03:16:53.255Z,100636.84
2023-01-29T03:19:37.885Z,100634.30
2023-01-29T03:22:10.799Z,100638.59
2023-01-29T03:25:06.945Z,100634.48
2023-01-29T03:28:03.446Z,100635.20
2023-01-29T03:30:56.302Z,100637.33
2023-01-29T03:34:10.085Z,100636.27
2023-01-29T03:36:45.615Z,100633.50
2023-01-29T03:39:13.973Z,100631.77
2023-01-29T08:09:59.830Z,100662.17
2023-01-29T08:12:27.708Z,100663.42
2023-01-29T08:14:55.632Z,100662.31
2023-01-29T08:17:23.585Z,100666.51
2023-01-29T08:19:51.635Z,100668.24
2023-01-29T08:22:19.935Z,100667.70
2023-01-29T08:24:53.881Z,100662.17
2023-01-29T08:27:27.969Z,100663.61
2023-01-29T08:29:55.764Z,100663.20
2023-01-29T08:32:35.295Z,100663.98
2023-01-29T08:35:03.559Z,100665.11
2023-01-29T08:37:31.964Z,100662.27
2023-01-29T08:40:00.411Z,100663.61
2023-01-29T08:42:28.995Z,100664.77
2023-01-29T08:44:56.836Z,100658.42
2023-01-29T08:47:28.615Z,100657.47
2023-01-29T08:49:56.971Z,100656.34
2023-01-29T08:52:26.418Z,100653.15
2023-01-29T08:54:55.942Z,100648.14
2023-01-29T08:57:23.851Z,100648.08
2023-01-29T08:59:51.759Z,100649.13
2023-01-29T09:02:22.385Z,100650.20
2023-01-29T09:04:50.274Z,100644.98
2023-01-29T09:07:18.157Z,100641.51
2023-01-29T09:09:45.943Z,100639.02
2023-01-29T09:12:13.817Z,100638.71
2023-01-29T09:14:41.901Z,100642.22
2023-01-29T09:17:09.753Z,100638.60
2023-01-29T09:19:37.699Z,100637.39
2023-01-29T09:22:05.672Z,100629.52
2023-01-29T09:24:35.093Z,100627.66
2023-01-29T09:27:03.232Z,100624.38
2023-01-29T09:29:31.203Z,100628.59
2023-01-29T09:31:59.263Z,100627.36
2023-01-29T09:34:27.156Z,100623.41
2023-01-29T09:36:55.318Z,100618.92
2023-01-29T09:39:23.235Z,100613.98
2023-01-29T09:42:06.104Z,100613.61
2023-01-29T09:44:48.734Z,100609.70
2023-01-29T09:47:19.116Z,100611.86
2023-01-29T09:50:08.527Z,100608.76
2023-01-29T09:52:39.715Z,100608.39
2023-01-29T09:55:12.965Z,100608.76
2023-01-29T09:58:00.049Z,100602.48
2023-01-29T10:00:37.206Z,100602.89
2023-01-29T10:03:31.615Z,100598.64
2023-01-29T10:06:04.213Z,100595.80
2023-01-29T10:09:03.835Z,100594.48
2023-01-29T10:11:49.714Z,100588.85
2023-01-29T10:14:56.627Z,100587.45
2023-01-29T10:17:36.902Z,100584.09
2023-01-29T10:20:46.505Z,100578.12
2023-01-29T10:23:39.382Z,100577.28
2023-01-29T10:26:10.927Z,100571.92
2023-01-29T10:28:47.541Z,100576.05
2023-01-29T10:31:33.325Z,100575.23
2023-01-29T10:34:07.598Z,100571.22
2023-01-29T10:36:46.596Z,100566.41
2023-01-29T10:39:21.902Z,100562.05
2023-01-29T10:42:12.005Z,100561.79
2023-01-29T10:44:39.945Z,100552.10
2023-01-29T10:47:14.290Z,100550.79
2023-01-29T10:49:57.438Z,100550.30
2023-01-29T10:52:58.331Z,100545.52
2023-01-29T10:55:51.228Z,100543.30
2023-01-29T10:58:41.869Z,100543.23
2023-01-29T11:01:10.227Z,100541.16
2023-01-29T11:03:38.206Z,100539.38
2023-01-29T11:06:30.722Z,100529.63
2023-01-29T11:09:16.979Z,100524.88
2023-01-29T11:11:54.709Z,100525.46
2023-01-29T11:14:24.770Z,100523.30
2023-01-29T11:16:52.991Z,100518.29
2023-01-29T11:19:39.794Z,100524.44
2023-01-29T11:22:16.470Z,100522.08
2023-01-29T11:24:44.488Z,100517.39
2023-01-29T11:27:16.497Z,100512.70
2023-01-29T11:29:48.142Z,100514.18
2023-01-29T11:32:19.011Z,100512.85
2023-01-29T11:35:16.295Z,100510.50
2023-01-29T11:37:45.029Z,100505.53
2023-01-29T11:40:19.263Z,100509.48
2023-01-29T11:42:47.360Z,100509.02
2023-01-29T11:45:27.542Z,100511.72
2023-01-29T16:15:57.480Z,100487.88
2023-01-29T16:18:31.705Z,100491.63
2023-01-29T16:21:12.858Z,100488.19
2023-01-29T16:23:42.912Z,100485.58
2023-01-29T16:26:15.495Z,100488.90
2023-01-29T16:28:45.067Z,100487.19
2023-01-29T16:31:14.154Z,100486.45
2023-01-29T16:33:42.759Z,100484.58
2023-01-29T16:36:27.189Z,100489.51
2023-01-29T16:38:59.988Z,100489.91
2023-01-29T16:41:32.593Z,100494.83
2023-01-29T16:44:15.717Z,100494.82
2023-01-29T16:46:47.695Z,100494.84
2023-01-29T16:49:38.884Z,100491.61
2023-01-29T16:52:19.941Z,100490.84
2023-01-29T16:54:48.114Z,100488.98
2023-01-29T16:57:19.034Z,100492.77
2023-01-29T16:59:46.859Z,100493.73
2023-01-29T17:02:41.699Z,100494.41
2023-01-29T17:05:10.823Z,100497.70
2023-01-29T17:07:39.632Z,100490.81
2023-01-29T17:10:08.368Z,100495.44
2023-01-29T17:12:38.752Z,100491.86
2023-01-29T17:15:29.255Z,100492.33
2023-01-29T17:17:57.549Z,100495.18
2023-01-29T17:20:26.968Z,100494.23
2023-01-29T17:22:56.474Z,100494.52
2023-01-29T17:25:24.764Z,100492.00
2023-01-29T17:27:52.993Z,100493.66
2023-01-29T17:30:21.946Z,100492.11
2023-01-29T17:32:50.606Z,100485.94
2023-01-29T17:35:18.961Z,100493.42
2023-01-29T17:37:47.340Z,100489.59
2023-01-29T17:40:37.721Z,100490.66
2023-01-29T17:43:07.060Z,100487.67
2023-01-29T17:45:34.981Z,100482.59
2023-01-29T17:48:22.009Z,100478.34
2023-01-29T17:50:53.697Z,100478.20
2023-01-29T17:53:21.955Z,100474.15
2023-01-29T17:55:52.614Z,100474.04
2023-01-29T17:58:26.104Z,100471.05
2023-01-29T18:00:54.323Z,100470.29
2023-01-29T18:03:22.874Z,100468.45
2023-01-29T18:05:51.581Z,100463.70
2023-01-29T18:08:22.366Z,100460.13
2023-01-29T18:10:50.290Z,100461.70
2023-01-29T18:13:18.171Z,100464.05
2023-01-29T18:15:46.119Z,100458.64
2023-01-29T18:18:16.094Z,100458.26
2023-01-29T18:20:45.202Z,100462.73
2023-01-29T18:23:13.167Z,100461.23
2023-01-29T18:25:41.342Z,100456.13
2023-01-29T18:28:10.801Z,100458.04
2023-01-29T18:30:38.914Z,100456.31
2023-01-29T18:33:06.999Z,100453.61
2023-01-29T18:35:34.885Z,100451.88
2023-01-29T18:38:03.091Z,100449.01
2023-01-29T18:40:32.124Z,100454.26
2023-01-29T18:43:01.003Z,100453.92
2023-01-29T18:45:29.421Z,100452.31
2023-01-29T18:47:57.745Z,100455.88
2023-01-29T18:50:26.547Z,100456.28
2023-01-29T18:52:54.747Z,100460.73
2023-01-29T18:55:23.308Z,100465.65
2023-01-29T18:58:29.371Z,100460.45
2023-01-29T19:00:42.998Z,100458.34
2023-01-29T19:03:11.264Z,100460.95
2023-01-29T19:05:39.242Z,100462.69
2023-01-29T19:08:07.418Z,100464.41
2023-01-29T19:10:36.021Z,100463.89
2023-01-29T19:13:06.432Z,100467.17
2023-01-29T19:15:36.779Z,100464.20
2023-01-29T19:18:04.799Z,100468.16
2023-01-29T19:20:32.789Z,100471.42
2023-01-29T19:23:00.655Z,100471.09
2023-01-29T19:25:28.749Z,100471.36
2023-01-29T19:27:56.790Z,100470.66
2023-01-29T19:30:24.887Z,100470.55
2023-01-29T19:32:53.520Z,100472.27
2023-01-29T19:35:22.270Z,100469.45
2023-01-29T19:37:50.094Z,100463.66
2023-01-29T19:40:20.910Z,100461.33
2023-01-29T23:57:36.705Z,100286.52
